sensor_id;sensor_type;location;lat;lon;timestamp;pressure;altitude;pressure_sealevel;temperature;humidity
7480;BME280;3781;42.272;22.658;2023-11-19T00:01:11;94463.59;;;14.23;35.54
7480;BME280;3781;42.272;22.658;2023-11-19T00:03:38;94429.09;;;14.61;35.52
7480;BME280;3781;42.272;22.658;2023-11-19T00:06:06;94458.13;;;14.42;35.83
7480;BME280;3781;42.272;22.658;2023-11-19T00:08:32;94452.28;;;14.56;35.30
7480;BME280;3781;42.272;22.658;2023-11-19T00:10:59;94467.50;;;14.85;34.92
7480;BME280;3781;42.272;22.658;2023-11-19T00:13:26;94470.44;;;15.22;34.72
7480;BME280;3781;42.272;22.658;2023-11-19T00:15:55;94463.38;;;15.15;34.68
7480;BME280;3781;42.272;22.658;2023-11-19T00:18:22;94474.50;;;15.08;34.44
7480;BME280;3781;42.272;22.658;2023-11-19T00:20:49;94479.75;;;15.08;34.86
7480;BME280;3781;42.272;22.658;2023-11-19T00:23:15;94465.69;;;14.77;35.04
7480;BME280;3781;42.272;22.658;2023-11-19T00:25:42;94472.06;;;15.07;34.73
7480;BME280;3781;42.272;22.658;2023-11-19T00:28:09;94446.09;;;14.65;34.66
7480;BME280;3781;42.272;22.658;2023-11-19T00:30:36;94311.66;;;13.45;35.41
7480;BME280;3781;42.272;22.658;2023-11-19T00:33:04;94253.91;;;12.91;36.27
7480;BME280;3781;42.272;22.658;2023-11-19T00:35:31;94440.75;;;14.17;35.35
7480;BME280;3781;42.272;22.658;2023-11-19T00:37:58;94478.75;;;14.69;35.46
7480;BME280;3781;42.272;22.658;2023-11-19T00:40:26;94426.44;;;14.37;35.28
7480;BME280;3781;42.272;22.658;2023-11-19T00:42:52;94490.84;;;14.86;34.49
7480;BME280;3781;42.272;22.658;2023-11-19T00:45:19;94484.41;;;14.41;35.22
7480;BME280;3781;42.272;22.658;2023-11-19T00:47:46;94434.72;;;13.75;35.91
7480;BME280;3781;42.272;22.658;2023-11-19T00:50:15;94491.16;;;14.83;34.97
7480;BME280;3781;42.272;22.658;2023-11-19T00:52:42;94488.56;;;14.91;34.96
7480;BME280;3781;42.272;22.658;2023-11-19T00:55:09;94460.94;;;14.73;34.72
7480;BME280;3781;42.272;22.658;2023-11-19T00:57:37;94420.78;;;14.00;35.46
7480;BME280;3781;42.272;22.658;2023-11-19T01:00:04;94487.97;;;14.31;35.76
7480;BME280;3781;42.272;22.658;2023-11-19T01:02:40;94490.72;;;14.22;35.53
7480;BME280;3781;42.272;22.658;2023-11-19T01:05:08;94392.84;;;13.84;35.59
7480;BME280;3781;42.272;22.658;2023-11-19T01:07:36;94490.84;;;14.86;35.45
7480;BME280;3781;42.272;22.658;2023-11-19T01:10:05;94466.31;;;13.97;35.92
7480;BME280;3781;42.272;22.658;2023-11-19T01:12:32;94475.44;;;13.59;36.46
7480;BME280;3781;42.272;22.658;2023-11-19T01:14:59;94510.41;;;14.50;35.35
7480;BME280;3781;42.272;22.658;2023-11-19T01:17:26;94509.72;;;14.32;35.19
7480;BME280;3781;42.272;22.658;2023-11-19T01:19:53;94508.91;;;13.98;35.86
7480;BME280;3781;42.272;22.658;2023-11-19T01:22:20;94501.41;;;14.03;36.10
7480;BME280;3781;42.272;22.658;2023-11-19T01:24:48;94502.31;;;14.27;35.76
7480;BME280;3781;42.272;22.658;2023-11-19T01:27:17;94508.56;;;13.59;36.09
7480;BME280;3781;42.272;22.658;2023-11-19T01:29:44;94501.09;;;14.48;35.43
7480;BME280;3781;42.272;22.658;2023-11-19T01:32:11;94508.84;;;14.23;35.67
7480;BME280;3781;42.272;22.658;2023-11-19T01:34:38;94503.53;;;14.49;35.16
7480;BME280;3781;42.272;22.658;2023-11-19T01:37:04;94488.50;;;14.35;35.47
7480;BME280;3781;42.272;22.658;2023-11-19T01:39:31;94504.31;;;14.33;35.33
7480;BME280;3781;42.272;22.658;2023-11-19T01:41:59;94508.50;;;14.84;35.10
7480;BME280;3781;42.272;22.658;2023-11-19T01:44:26;94516.53;;;14.83;34.53
7480;BME280;3781;42.272;22.658;2023-11-19T01:46:53;94516.03;;;14.87;33.91
7480;BME280;3781;42.272;22.658;2023-11-19T01:49:20;94505.19;;;14.58;34.75
7480;BME280;3781;42.272;22.658;2023-11-19T01:51:47;94485.13;;;13.41;35.77
7480;BME280;3781;42.272;22.658;2023-11-19T01:54:15;94501.41;;;14.03;34.96
7480;BME280;3781;42.272;22.658;2023-11-19T01:56:42;94508.81;;;14.65;34.29
7480;BME280;3781;42.272;22.658;2023-11-19T01:59:12;94499.34;;;15.37;34.22
7480;BME280;3781;42.272;22.658;2023-11-19T02:01:40;94498.03;;;15.25;33.63
7480;BME280;3781;42.272;22.658;2023-11-19T02:04:08;94458.81;;;14.92;33.51
7480;BME280;3781;42.272;22.658;2023-11-19T02:06:36;94489.53;;;15.31;33.49
7480;BME280;3781;42.272;22.658;2023-11-19T02:09:05;94481.69;;;14.90;34.16
7480;BME280;3781;42.272;22.658;2023-11-19T02:11:33;94483.94;;;14.53;34.16
7480;BME280;3781;42.272;22.658;2023-11-19T02:14:00;94488.22;;;14.54;34.51
7480;BME280;3781;42.272;22.658;2023-11-19T02:16:29;94421.56;;;14.50;33.96
7480;BME280;3781;42.272;22.658;2023-11-19T02:18:56;94470.56;;;14.96;33.59
7480;BME280;3781;42.272;22.658;2023-11-19T02:21:23;94451.31;;;14.65;33.76
7480;BME280;3781;42.272;22.658;2023-11-19T02:23:50;94463.72;;;14.79;34.09
7480;BME280;3781;42.272;22.658;2023-11-19T02:26:24;94422.38;;;14.75;33.82
7480;BME280;3781;42.272;22.658;2023-11-19T02:28:55;94448.38;;;14.84;33.75
7480;BME280;3781;42.272;22.658;2023-11-19T02:31:22;94475.81;;;14.72;34.10
7480;BME280;3781;42.272;22.658;2023-11-19T02:33:49;94481.72;;;14.74;34.40
7480;BME280;3781;42.272;22.658;2023-11-19T02:36:17;94481.03;;;14.64;34.28
7480;BME280;3781;42.272;22.658;2023-11-19T02:38:44;94489.19;;;13.70;35.46
7480;BME280;3781;42.272;22.658;2023-11-19T02:41:11;94492.34;;;14.23;34.94
7480;BME280;3781;42.272;22.658;2023-11-19T02:43:38;94493.38;;;14.30;35.14
7480;BME280;3781;42.272;22.658;2023-11-19T02:46:07;94481.97;;;14.39;34.91
7480;BME280;3781;42.272;22.658;2023-11-19T02:48:34;94466.03;;;14.08;34.83
7480;BME280;3781;42.272;22.658;2023-11-19T02:51:01;94488.50;;;14.01;35.51
7480;BME280;3781;42.272;22.658;2023-11-19T02:53:29;94484.47;;;13.39;35.93
7480;BME280;3781;42.272;22.658;2023-11-19T02:55:56;94488.66;;;13.92;35.69
7480;BME280;3781;42.272;22.658;2023-11-19T02:58:28;94490.47;;;14.41;34.80
7480;BME280;3781;42.272;22.658;2023-11-19T03:00:55;94487.69;;;14.01;34.91
7480;BME280;3781;42.272;22.658;2023-11-19T03:03:27;94496.44;;;13.84;35.30
7480;BME280;3781;42.272;22.658;2023-11-19T03:06:04;94487.69;;;14.01;35.21
7480;BME280;3781;42.272;22.658;2023-11-19T03:08:31;94433.16;;;13.22;35.71
7480;BME280;3781;42.272;22.658;2023-11-19T03:10:58;94478.63;;;13.20;35.71
7480;BME280;3781;42.272;22.658;2023-11-19T03:13:25;94491.31;;;12.97;36.54
7480;BME280;3781;42.272;22.658;2023-11-19T03:15:52;94460.25;;;12.86;36.22
7480;BME280;3781;42.272;22.658;2023-11-19T03:18:19;94488.84;;;13.39;35.81
7480;BME280;3781;42.272;22.658;2023-11-19T03:20:47;94492.28;;;13.39;36.16
7480;BME280;3781;42.272;22.658;2023-11-19T03:23:15;94502.59;;;13.23;36.11
7480;BME280;3781;42.272;22.658;2023-11-19T03:25:42;94502.00;;;13.29;35.47
7480;BME280;3781;42.272;22.658;2023-11-19T03:28:09;94504.66;;;13.63;35.13
7480;BME280;3781;42.272;22.658;2023-11-19T03:30:37;94506.13;;;12.61;36.87
7480;BME280;3781;42.272;22.658;2023-11-19T03:33:04;94346.47;;;11.90;36.39
7480;BME280;3781;42.272;22.658;2023-11-19T03:35:31;94447.97;;;12.96;35.70
7480;BME280;3781;42.272;22.658;2023-11-19T03:38:00;94509.06;;;12.76;36.74
7480;BME280;3781;42.272;22.658;2023-11-19T03:40:28;94459.72;;;11.94;37.73
7480;BME280;3781;42.272;22.658;2023-11-19T03:42:55;94499.34;;;12.86;37.23
7480;BME280;3781;42.272;22.658;2023-11-19T03:45:21;94510.66;;;12.77;36.53
7480;BME280;3781;42.272;22.658;2023-11-19T03:47:48;94493.13;;;13.22;36.12
7480;BME280;3781;42.272;22.658;2023-11-19T03:50:15;94523.47;;;13.49;35.64
7480;BME280;3781;42.272;22.658;2023-11-19T03:52:43;94509.22;;;13.95;34.95
7480;BME280;3781;42.272;22.658;2023-11-19T03:55:11;94536.06;;;14.13;34.92
7480;BME280;3781;42.272;22.658;2023-11-19T03:57:39;94529.09;;;13.36;35.41
7480;BME280;3781;42.272;22.658;2023-11-19T04:00:08;94500.56;;;13.60;35.10
7480;BME280;3781;42.272;22.658;2023-11-19T04:02:35;94521.88;;;14.15;34.72
7480;BME280;3781;42.272;22.658;2023-11-19T04:05:03;94531.75;;;13.96;34.49
7480;BME280;3781;42.272;22.658;2023-11-19T04:07:30;94540.72;;;14.01;34.51
7480;BME280;3781;42.272;22.658;2023-11-19T04:09:57;94440.28;;;13.72;34.52
7480;BME280;3781;42.272;22.658;2023-11-19T04:12:26;94527.34;;;14.38;34.12
7480;BME280;3781;42.272;22.658;2023-11-19T04:14:53;94481.47;;;13.94;34.03
7480;BME280;3781;42.272;22.658;2023-11-19T04:17:20;94517.59;;;14.06;34.26
7480;BME280;3781;42.272;22.658;2023-11-19T04:19:46;94514.50;;;13.77;34.69
7480;BME280;3781;42.272;22.658;2023-11-19T04:22:13;94494.78;;;13.49;34.56
7480;BME280;3781;42.272;22.658;2023-11-19T04:24:40;94515.22;;;13.87;34.76
7480;BME280;3781;42.272;22.658;2023-11-19T04:27:09;94517.59;;;14.06;34.36
7480;BME280;3781;42.272;22.658;2023-11-19T04:29:37;94524.63;;;14.56;34.31
7480;BME280;3781;42.272;22.658;2023-11-19T04:32:05;94480.56;;;14.19;34.29
7480;BME280;3781;42.272;22.658;2023-11-19T04:34:32;94500.59;;;14.02;34.32
7480;BME280;3781;42.272;22.658;2023-11-19T04:36:59;94502.66;;;13.91;35.04
7480;BME280;3781;42.272;22.658;2023-11-19T04:39:28;94540.03;;;13.91;34.84
7480;BME280;3781;42.272;22.658;2023-11-19T04:41:55;94468.66;;;13.15;35.42
7480;BME280;3781;42.272;22.658;2023-11-19T04:44:22;94492.91;;;13.59;34.77
7480;BME280;3781;42.272;22.658;2023-11-19T04:46:51;94539.19;;;14.58;35.08
7480;BME280;3781;42.272;22.658;2023-11-19T04:49:18;94533.88;;;14.00;34.66
7480;BME280;3781;42.272;22.658;2023-11-19T04:51:45;94511.84;;;14.03;35.35
7480;BME280;3781;42.272;22.658;2023-11-19T04:54:12;94453.41;;;13.54;35.29
7480;BME280;3781;42.272;22.658;2023-11-19T04:56:39;94446.81;;;13.76;34.44
7480;BME280;3781;42.272;22.658;2023-11-19T04:59:06;94460.22;;;13.81;34.87
7480;BME280;3781;42.272;22.658;2023-11-19T05:01:34;94538.91;;;13.94;34.79
7480;BME280;3781;42.272;22.658;2023-11-19T05:04:01;94545.06;;;13.85;34.97
7480;BME280;3781;42.272;22.658;2023-11-19T05:06:28;94530.22;;;13.59;34.94
7480;BME280;3781;42.272;22.658;2023-11-19T05:08:56;94562.69;;;13.83;35.20
7480;BME280;3781;42.272;22.658;2023-11-19T05:11:23;94526.47;;;13.88;35.16
7480;BME280;3781;42.272;22.658;2023-11-19T05:13:50;94559.41;;;13.81;35.03
7480;BME280;3781;42.272;22.658;2023-11-19T05:16:16;94559.38;;;13.29;35.18
7480;BME280;3781;42.272;22.658;2023-11-19T05:18:44;94559.16;;;13.92;35.00
7480;BME280;3781;42.272;22.658;2023-11-19T05:21:11;94566.69;;;14.03;35.06
7480;BME280;3781;42.272;22.658;2023-11-19T05:23:38;94497.03;;;13.70;34.15
7480;BME280;3781;42.272;22.658;2023-11-19T05:26:07;94571.56;;;13.98;34.68
7480;BME280;3781;42.272;22.658;2023-11-19T05:28:34;94566.66;;;13.95;34.43
7480;BME280;3781;42.272;22.658;2023-11-19T05:31:01;94538.25;;;13.92;34.40
7480;BME280;3781;42.272;22.658;2023-11-19T05:33:28;94564.44;;;14.42;34.25
7480;BME280;3781;42.272;22.658;2023-11-19T05:35:55;94573.75;;;14.44;33.89
7480;BME280;3781;42.272;22.658;2023-11-19T05:38:24;94584.53;;;14.41;34.23
7480;BME280;3781;42.272;22.658;2023-11-19T05:40:50;94570.84;;;14.13;34.09
7480;BME280;3781;42.272;22.658;2023-11-19T05:43:17;94589.72;;;14.33;34.33
7480;BME280;3781;42.272;22.658;2023-11-19T05:45:44;94569.97;;;14.05;34.42
7480;BME280;3781;42.272;22.658;2023-11-19T05:48:11;94578.56;;;13.97;34.27
7480;BME280;3781;42.272;22.658;2023-11-19T05:50:38;94568.56;;;14.18;33.93
7480;BME280;3781;42.272;22.658;2023-11-19T05:53:05;94560.53;;;14.46;33.65
7480;BME280;3781;42.272;22.658;2023-11-19T05:55:36;94577.34;;;15.17;33.47
7480;BME280;3781;42.272;22.658;2023-11-19T05:58:10;94536.63;;;14.82;33.34
7480;BME280;3781;42.272;22.658;2023-11-19T06:00:38;94572.91;;;14.85;33.34
7480;BME280;3781;42.272;22.658;2023-11-19T06:03:05;94572.91;;;15.01;32.93
7480;BME280;3781;42.272;22.658;2023-11-19T06:05:33;94585.63;;;14.88;33.42
7480;BME280;3781;42.272;22.658;2023-11-19T06:08:00;94598.06;;;14.78;33.37
7480;BME280;3781;42.272;22.658;2023-11-19T06:10:27;94584.53;;;14.41;33.29
7480;BME280;3781;42.272;22.658;2023-11-19T06:12:58;94593.75;;;14.61;33.87
7480;BME280;3781;42.272;22.658;2023-11-19T06:15:25;94586.84;;;14.52;32.85
7480;BME280;3781;42.272;22.658;2023-11-19T06:17:52;94597.69;;;14.65;32.45
7480;BME280;3781;42.272;22.658;2023-11-19T06:20:18;94534.38;;;14.04;33.12
7480;BME280;3781;42.272;22.658;2023-11-19T06:22:46;94598.41;;;14.99;32.75
7480;BME280;3781;42.272;22.658;2023-11-19T06:25:13;94560.69;;;14.44;32.29
7480;BME280;3781;42.272;22.658;2023-11-19T06:27:41;94593.88;;;15.18;32.04
7480;BME280;3781;42.272;22.658;2023-11-19T06:30:10;94578.69;;;15.69;33.01
7480;BME280;3781;42.272;22.658;2023-11-19T06:32:38;94559.38;;;15.54;32.13
7480;BME280;3781;42.272;22.658;2023-11-19T06:35:05;94605.63;;;16.02;31.59
7480;BME280;3781;42.272;22.658;2023-11-19T06:37:32;94599.16;;;15.50;31.53
7480;BME280;3781;42.272;22.658;2023-11-19T06:39:59;94558.88;;;15.67;31.65
7480;BME280;3781;42.272;22.658;2023-11-19T06:42:26;94542.53;;;15.57;31.30
7480;BME280;3781;42.272;22.658;2023-11-19T06:44:53;94548.09;;;15.14;31.57
7480;BME280;3781;42.272;22.658;2023-11-19T06:47:25;94580.16;;;15.56;31.20
7480;BME280;3781;42.272;22.658;2023-11-19T06:49:52;94589.44;;;15.42;31.29
7480;BME280;3781;42.272;22.658;2023-11-19T06:52:19;94584.75;;;15.54;30.87
7480;BME280;3781;42.272;22.658;2023-11-19T06:54:46;94599.78;;;15.60;30.68
7480;BME280;3781;42.272;22.658;2023-11-19T06:57:13;94592.25;;;15.49;30.66
7480;BME280;3781;42.272;22.658;2023-11-19T06:59:40;94598.13;;;15.75;30.84
7480;BME280;3781;42.272;22.658;2023-11-19T07:02:07;94578.59;;;16.10;31.46
7480;BME280;3781;42.272;22.658;2023-11-19T07:04:35;94587.47;;;16.55;31.10
7480;BME280;3781;42.272;22.658;2023-11-19T07:07:02;94604.13;;;16.71;31.11
7480;BME280;3781;42.272;22.658;2023-11-19T07:09:31;94614.31;;;16.66;31.12
7480;BME280;3781;42.272;22.658;2023-11-19T07:11:58;94619.84;;;16.79;31.14
7480;BME280;3781;42.272;22.658;2023-11-19T07:14:25;94606.72;;;16.79;30.25
7480;BME280;3781;42.272;22.658;2023-11-19T07:16:52;94562.41;;;16.45;30.55
7480;BME280;3781;42.272;22.658;2023-11-19T07:19:19;94618.13;;;16.94;30.63
7480;BME280;3781;42.272;22.658;2023-11-19T07:21:47;94611.53;;;17.51;30.58
7480;BME280;3781;42.272;22.658;2023-11-19T07:24:14;94613.44;;;17.94;29.25
7480;BME280;3781;42.272;22.658;2023-11-19T07:26:43;94615.44;;;18.73;28.89
7480;BME280;3781;42.272;22.658;2023-11-19T07:29:10;94621.25;;;18.54;28.79
7480;BME280;3781;42.272;22.658;2023-11-19T07:31:36;94624.16;;;18.45;28.30
7480;BME280;3781;42.272;22.658;2023-11-19T07:34:03;94627.72;;;18.29;28.48
7480;BME280;3781;42.272;22.658;2023-11-19T07:36:32;94632.00;;;18.30;28.55
7480;BME280;3781;42.272;22.658;2023-11-19T07:39:00;94636.66;;;18.05;28.80
7480;BME280;3781;42.272;22.658;2023-11-19T07:41:27;94623.63;;;17.97;28.53
7480;BME280;3781;42.272;22.658;2023-11-19T07:43:54;94627.28;;;18.26;28.44
7480;BME280;3781;42.272;22.658;2023-11-19T07:46:21;94637.38;;;18.51;28.47
7480;BME280;3781;42.272;22.658;2023-11-19T07:48:48;94634.38;;;18.40;28.44
7480;BME280;3781;42.272;22.658;2023-11-19T07:51:15;94634.81;;;18.29;28.39
7480;BME280;3781;42.272;22.658;2023-11-19T07:53:42;94601.47;;;17.77;28.08
7480;BME280;3781;42.272;22.658;2023-11-19T07:56:11;94616.56;;;18.13;28.19
7480;BME280;3781;42.272;22.658;2023-11-19T07:58:38;94595.56;;;17.75;28.52
7480;BME280;3781;42.272;22.658;2023-11-19T08:01:05;94599.38;;;18.25;27.97
7480;BME280;3781;42.272;22.658;2023-11-19T08:03:32;94482.19;;;17.49;27.99
7480;BME280;3781;42.272;22.658;2023-11-19T08:06:00;94605.00;;;18.51;27.45
7480;BME280;3781;42.272;22.658;2023-11-19T08:08:27;94480.56;;;17.48;27.07
7480;BME280;3781;42.272;22.658;2023-11-19T08:10:56;94495.66;;;18.13;27.90
7480;BME280;3781;42.272;22.658;2023-11-19T08:13:25;94459.75;;;18.20;29.97
7480;BME280;3781;42.272;22.658;2023-11-19T08:15:52;94518.06;;;18.08;27.67
7480;BME280;3781;42.272;22.658;2023-11-19T08:18:18;94613.16;;;18.85;26.96
7480;BME280;3781;42.272;22.658;2023-11-19T08:20:45;94642.16;;;19.06;27.29
7480;BME280;3781;42.272;22.658;2023-11-19T08:23:18;94632.22;;;18.87;26.44
7480;BME280;3781;42.272;22.658;2023-11-19T08:25:45;94637.09;;;17.49;28.28
7480;BME280;3781;42.272;22.658;2023-11-19T08:28:12;94633.19;;;17.90;27.33
7480;BME280;3781;42.272;22.658;2023-11-19T08:30:40;94608.66;;;17.61;27.99
7480;BME280;3781;42.272;22.658;2023-11-19T08:33:07;94625.06;;;17.85;28.49
7480;BME280;3781;42.272;22.658;2023-11-19T08:35:33;94602.06;;;18.75;27.49
7480;BME280;3781;42.272;22.658;2023-11-19T08:38:00;94598.66;;;19.95;25.40
7480;BME280;3781;42.272;22.658;2023-11-19T08:40:27;94595.16;;;20.37;25.51
7480;BME280;3781;42.272;22.658;2023-11-19T08:42:55;94648.34;;;21.09;24.54
7480;BME280;3781;42.272;22.658;2023-11-19T08:45:22;94645.47;;;21.77;24.25
7480;BME280;3781;42.272;22.658;2023-11-19T08:47:50;94659.38;;;22.38;23.71
7480;BME280;3781;42.272;22.658;2023-11-19T08:50:17;94662.06;;;22.18;23.72
7480;BME280;3781;42.272;22.658;2023-11-19T08:52:44;94667.88;;;21.81;23.57
7480;BME280;3781;42.272;22.658;2023-11-19T08:55:11;94660.41;;;21.91;23.84
7480;BME280;3781;42.272;22.658;2023-11-19T08:57:39;94660.41;;;21.91;22.84
7480;BME280;3781;42.272;22.658;2023-11-19T09:00:06;94650.91;;;20.61;23.94
7480;BME280;3781;42.272;22.658;2023-11-19T09:02:34;94603.44;;;20.06;24.91
7480;BME280;3781;42.272;22.658;2023-11-19T09:05:04;94634.75;;;21.85;24.02
7480;BME280;3781;42.272;22.658;2023-11-19T09:07:32;94635.19;;;21.22;23.80
7480;BME280;3781;42.272;22.658;2023-11-19T09:09:59;94640.88;;;22.31;23.26
7480;BME280;3781;42.272;22.658;2023-11-19T09:12:26;94641.03;;;24.58;21.14
7480;BME280;3781;42.272;22.658;2023-11-19T09:14:53;94636.97;;;26.12;19.16
7480;BME280;3781;42.272;22.658;2023-11-19T09:17:20;94635.94;;;24.99;19.74
7480;BME280;3781;42.272;22.658;2023-11-19T09:19:47;94648.16;;;23.83;20.81
7480;BME280;3781;42.272;22.658;2023-11-19T09:22:15;94644.53;;;22.43;22.83
7480;BME280;3781;42.272;22.658;2023-11-19T09:24:42;94630.59;;;21.56;23.54
7480;BME280;3781;42.272;22.658;2023-11-19T09:27:09;94626.22;;;21.10;24.10
7480;BME280;3781;42.272;22.658;2023-11-19T09:29:37;94615.66;;;20.75;24.50
7480;BME280;3781;42.272;22.658;2023-11-19T09:32:04;94619.66;;;21.66;23.19
7480;BME280;3781;42.272;22.658;2023-11-19T09:34:31;94621.72;;;22.29;22.24
7480;BME280;3781;42.272;22.658;2023-11-19T09:36:58;94627.44;;;23.98;21.14
7480;BME280;3781;42.272;22.658;2023-11-19T09:39:27;94622.63;;;25.35;19.93
7480;BME280;3781;42.272;22.658;2023-11-19T09:41:54;94616.94;;;25.32;19.24
7480;BME280;3781;42.272;22.658;2023-11-19T09:44:21;94594.25;;;26.19;19.08
7480;BME280;3781;42.272;22.658;2023-11-19T09:46:48;94588.22;;;28.50;17.61
7480;BME280;3781;42.272;22.658;2023-11-19T09:49:16;94496.75;;;29.08;16.83
7480;BME280;3781;42.272;22.658;2023-11-19T09:51:46;94581.00;;;27.05;18.09
7480;BME280;3781;42.272;22.658;2023-11-19T09:54:13;94544.66;;;26.06;18.60
7480;BME280;3781;42.272;22.658;2023-11-19T09:56:41;94521.97;;;26.03;18.69
7480;BME280;3781;42.272;22.658;2023-11-19T09:59:08;94576.88;;;27.25;18.54
7480;BME280;3781;42.272;22.658;2023-11-19T10:01:37;94573.66;;;28.96;17.03
7480;BME280;3781;42.272;22.658;2023-11-19T10:04:05;94504.28;;;30.18;16.29
7480;BME280;3781;42.272;22.658;2023-11-19T10:06:32;94560.97;;;30.05;15.78
7480;BME280;3781;42.272;22.658;2023-11-19T10:08:59;94565.19;;;29.47;16.83
7480;BME280;3781;42.272;22.658;2023-11-19T10:11:26;94572.00;;;30.45;15.84
7480;BME280;3781;42.272;22.658;2023-11-19T10:13:55;94521.81;;;31.34;15.67
7480;BME280;3781;42.272;22.658;2023-11-19T10:16:28;94539.72;;;29.71;16.10
7480;BME280;3781;42.272;22.658;2023-11-19T10:18:55;94555.28;;;28.45;17.10
7480;BME280;3781;42.272;22.658;2023-11-19T10:21:23;94499.91;;;27.74;16.85
7480;BME280;3781;42.272;22.658;2023-11-19T10:23:51;94355.72;;;26.34;17.80
7480;BME280;3781;42.272;22.658;2023-11-19T10:26:19;94476.94;;;27.89;17.10
7480;BME280;3781;42.272;22.658;2023-11-19T10:28:47;94549.44;;;27.98;17.46
7480;BME280;3781;42.272;22.658;2023-11-19T10:31:16;94540.66;;;28.52;16.72
7480;BME280;3781;42.272;22.658;2023-11-19T10:33:43;94536.59;;;27.10;18.00
7480;BME280;3781;42.272;22.658;2023-11-19T10:36:11;94533.16;;;27.38;17.44
7480;BME280;3781;42.272;22.658;2023-11-19T10:38:39;94506.38;;;27.05;17.47
7480;BME280;3781;42.272;22.658;2023-11-19T10:41:06;94542.63;;;28.23;17.16
7480;BME280;3781;42.272;22.658;2023-11-19T10:43:42;94550.25;;;29.08;16.73
7480;BME280;3781;42.272;22.658;2023-11-19T10:46:11;94540.56;;;28.09;17.49
7480;BME280;3781;42.272;22.658;2023-11-19T10:48:40;94537.47;;;28.33;17.61
7480;BME280;3781;42.272;22.658;2023-11-19T10:51:07;94554.94;;;28.08;17.77
7480;BME280;3781;42.272;22.658;2023-11-19T10:53:36;94530.22;;;29.32;17.55
7480;BME280;3781;42.272;22.658;2023-11-19T10:56:06;94513.59;;;30.89;16.29
7480;BME280;3781;42.272;22.658;2023-11-19T10:58:36;94531.72;;;31.28;15.27
7480;BME280;3781;42.272;22.658;2023-11-19T11:01:09;94548.28;;;32.78;15.23
7480;BME280;3781;42.272;22.658;2023-11-19T11:03:40;94527.41;;;33.29;14.58
7480;BME280;3781;42.272;22.658;2023-11-19T11:06:08;94508.50;;;33.88;14.40
7480;BME280;3781;42.272;22.658;2023-11-19T11:08:36;94523.06;;;34.54;13.75
7480;BME280;3781;42.272;22.658;2023-11-19T11:11:05;94536.19;;;35.18;13.17
7480;BME280;3781;42.272;22.658;2023-11-19T11:13:33;94529.94;;;35.41;13.53
7480;BME280;3781;42.272;22.658;2023-11-19T11:16:01;94532.28;;;35.06;12.94
7480;BME280;3781;42.272;22.658;2023-11-19T11:18:29;94522.06;;;34.74;13.41
7480;BME280;3781;42.272;22.658;2023-11-19T11:21:01;94540.94;;;35.26;13.10
7480;BME280;3781;42.272;22.658;2023-11-19T11:24:03;94543.28;;;34.57;13.70
7480;BME280;3781;42.272;22.658;2023-11-19T11:26:51;94549.31;;;34.44;13.26
7480;BME280;3781;42.272;22.658;2023-11-19T11:29:26;94540.91;;;34.79;13.28
7480;BME280;3781;42.272;22.658;2023-11-19T11:32:01;94499.25;;;35.14;13.29
7480;BME280;3781;42.272;22.658;2023-11-19T11:34:49;94493.97;;;35.04;12.82
7480;BME280;3781;42.272;22.658;2023-11-19T11:37:28;94510.91;;;35.09;12.52
7480;BME280;3781;42.272;22.658;2023-11-19T11:39:57;94513.66;;;34.52;13.12
7480;BME280;3781;42.272;22.658;2023-11-19T11:42:35;94520.69;;;34.48;12.90
7480;BME280;3781;42.272;22.658;2023-11-19T11:45:03;94515.69;;;34.02;13.34
7480;BME280;3781;42.272;22.658;2023-11-19T11:48:11;94503.94;;;34.22;12.88
7480;BME280;3781;42.272;22.658;2023-11-19T11:50:49;94493.38;;;33.43;13.56
7480;BME280;3781;42.272;22.658;2023-11-19T11:53:19;94483.31;;;33.15;14.12
7480;BME280;3781;42.272;22.658;2023-11-19T11:55:56;94428.03;;;32.73;14.10
7480;BME280;3781;42.272;22.658;2023-11-19T11:58:35;94478.19;;;31.99;14.42
7480;BME280;3781;42.272;22.658;2023-11-19T12:01:05;94447.75;;;29.83;15.68
7480;BME280;3781;42.272;22.658;2023-11-19T12:03:37;94422.22;;;28.08;16.85
7480;BME280;3781;42.272;22.658;2023-11-19T12:06:11;94462.63;;;28.93;16.89
7480;BME280;3781;42.272;22.658;2023-11-19T12:08:40;94455.94;;;28.69;16.96
7480;BME280;3781;42.272;22.658;2023-11-19T12:11:07;94462.84;;;28.10;17.35
7480;BME280;3781;42.272;22.658;2023-11-19T12:13:52;94433.06;;;29.27;16.34
7480;BME280;3781;42.272;22.658;2023-11-19T12:16:21;94474.09;;;29.37;16.39
7480;BME280;3781;42.272;22.658;2023-11-19T12:18:48;94413.84;;;27.50;16.97
7480;BME280;3781;42.272;22.658;2023-11-19T12:21:28;94452.50;;;27.97;17.00
7480;BME280;3781;42.272;22.658;2023-11-19T12:23:59;94433.41;;;27.72;16.91
7480;BME280;3781;42.272;22.658;2023-11-19T12:26:34;94462.50;;;28.23;16.87
7480;BME280;3781;42.272;22.658;2023-11-19T12:29:01;94455.53;;;29.04;16.34
7480;BME280;3781;42.272;22.658;2023-11-19T12:31:32;94458.34;;;28.49;16.41
7480;BME280;3781;42.272;22.658;2023-11-19T12:34:05;94456.75;;;28.70;16.03
7480;BME280;3781;42.272;22.658;2023-11-19T12:36:34;94443.59;;;28.08;16.54
7480;BME280;3781;42.272;22.658;2023-11-19T12:39:03;94450.19;;;29.04;16.27
7480;BME280;3781;42.272;22.658;2023-11-19T12:41:30;94448.56;;;29.51;15.76
7480;BME280;3781;42.272;22.658;2023-11-19T12:44:09;94445.16;;;30.81;15.30
7480;BME280;3781;42.272;22.658;2023-11-19T12:46:36;94443.69;;;31.20;15.05
7480;BME280;3781;42.272;22.658;2023-11-19T12:49:03;94435.19;;;31.84;13.95
7480;BME280;3781;42.272;22.658;2023-11-19T12:51:31;94388.44;;;31.85;13.64
7480;BME280;3781;42.272;22.658;2023-11-19T12:53:59;94447.78;;;31.48;14.18
7480;BME280;3781;42.272;22.658;2023-11-19T12:56:27;94412.63;;;30.16;14.99
7480;BME280;3781;42.272;22.658;2023-11-19T12:58:55;94406.63;;;29.62;15.84
7480;BME280;3781;42.272;22.658;2023-11-19T13:01:22;94437.53;;;29.74;15.08
7480;BME280;3781;42.272;22.658;2023-11-19T13:03:49;94364.41;;;29.37;15.00
7480;BME280;3781;42.272;22.658;2023-11-19T13:06:16;94438.25;;;30.02;15.02
7480;BME280;3781;42.272;22.658;2023-11-19T13:08:47;94426.31;;;29.77;15.40
7480;BME280;3781;42.272;22.658;2023-11-19T13:11:32;94441.06;;;30.74;14.75
7480;BME280;3781;42.272;22.658;2023-11-19T13:14:00;94455.47;;;30.52;15.01
7480;BME280;3781;42.272;22.658;2023-11-19T13:16:30;94459.44;;;31.02;15.08